createdAt,value
2023-01-28T00:02:30.957Z,16.77
2023-01-28T00:05:39.189Z,17.33
2023-01-28T00:08:47.707Z,17.23
2023-01-28T00:11:57.522Z,16.43
2023-01-28T00:15:07.378Z,17.33
2023-01-28T00:18:15.887Z,18.23
2023-01-28T00:21:24.330Z,16.10
2023-01-28T00:24:32.919Z,18.33
2023-01-28T00:27:43.073Z,18.60
2023-01-28T00:30:51.457Z,19.80
2023-01-28T00:34:00.317Z,17.27
2023-01-28T00:37:08.543Z,18.10
2023-01-28T00:40:17.130Z,18.07
2023-01-28T00:43:26.703Z,17.13
2023-01-28T00:46:34.838Z,16.77
2023-01-28T00:49:42.974Z,19.10
2023-01-28T00:52:51.103Z,17.93
2023-01-28T00:56:00.547Z,19.80
2023-01-28T00:59:14.064Z,20.97
2023-01-28T01:02:22.592Z,17.57
2023-01-28T01:05:31.022Z,20.17
2023-01-28T01:08:42.928Z,18.87
2023-01-28T01:11:51.467Z,18.10
2023-01-28T01:15:01.293Z,21.93
2023-01-28T01:18:09.596Z,17.23
2023-01-28T01:21:22.436Z,18.87
2023-01-28T01:24:33.971Z,21.10
2023-01-28T01:27:42.985Z,20.77
2023-01-28T01:31:00.952Z,21.73
2023-01-28T01:34:10.769Z,18.97
2023-01-28T01:37:19.113Z,21.77
2023-01-28T01:40:29.578Z,17.07
2023-01-28T01:43:52.277Z,19.67
2023-01-28T01:47:02.356Z,18.63
2023-01-28T01:50:24.684Z,18.40
2023-01-28T01:53:33.952Z,21.00
2023-01-28T01:56:48.722Z,25.50
2023-01-28T02:00:05.975Z,20.00
2023-01-28T02:03:30.655Z,20.03
2023-01-28T02:06:40.904Z,16.10
2023-01-28T02:09:49.907Z,20.20
2023-01-28T02:13:00.874Z,18.67
2023-01-28T02:16:11.497Z,19.73
2023-01-28T02:19:27.258Z,18.30
2023-01-28T02:23:15.875Z,18.40
2023-01-28T02:31:41.064Z,16.27
2023-01-28T02:34:59.329Z,21.13
2023-01-28T02:38:13.387Z,20.23
2023-01-28T02:41:30.711Z,18.30
2023-01-28T02:44:38.954Z,18.07
2023-01-28T02:48:00.044Z,18.43
2023-01-28T02:51:29.675Z,18.03
2023-01-28T02:54:47.703Z,19.03
2023-01-28T02:58:10.933Z,18.17
2023-01-28T03:01:29.365Z,21.30
2023-01-28T03:04:48.484Z,16.63
2023-01-28T03:08:00.441Z,17.90
2023-01-28T03:11:26.028Z,17.60
2023-01-28T03:14:54.259Z,17.73
2023-01-28T03:18:26.083Z,14.10
2023-01-28T03:22:02.930Z,12.83
2023-01-28T03:25:35.373Z,14.57
2023-01-28T03:29:08.393Z,14.73
2023-01-28T03:32:35.577Z,15.17
2023-01-28T03:36:03.573Z,17.27
2023-01-28T03:39:15.812Z,18.43
2023-01-28T03:42:25.666Z,18.17
2023-01-28T03:45:46.343Z,16.87
2023-01-28T03:48:54.807Z,16.00
2023-01-28T03:52:03.296Z,16.87
2023-01-28T03:55:14.983Z,18.30
2023-01-28T03:58:27.082Z,15.00
2023-01-28T04:01:35.707Z,15.60
2023-01-28T04:04:44.277Z,17.57
2023-01-28T04:07:55.894Z,14.10
2023-01-28T04:11:26.110Z,14.77
2023-01-28T04:14:34.772Z,17.70
2023-01-28T04:17:50.422Z,16.97
2023-01-28T04:21:16.868Z,14.13
2023-01-28T04:24:26.280Z,15.50
2023-01-28T04:27:36.796Z,15.47
2023-01-28T04:30:56.148Z,17.00
2023-01-28T04:34:25.707Z,13.27
2023-01-28T04:37:56.568Z,15.37
2023-01-28T04:41:23.536Z,14.93
2023-01-28T04:44:33.440Z,15.87
2023-01-28T04:47:58.671Z,16.50
2023-01-28T04:51:27.348Z,16.63
2023-01-28T04:54:51.620Z,15.53
2023-01-28T04:57:59.821Z,18.30
2023-01-28T05:01:10.245Z,18.97
2023-01-28T05:04:18.621Z,19.33
2023-01-28T05:07:27.919Z,13.27
2023-01-28T05:10:36.472Z,17.77
2023-01-28T05:13:45.613Z,17.40
2023-01-28T05:16:57.288Z,17.17
2023-01-28T05:20:07.369Z,15.90
2023-01-28T05:23:15.743Z,19.17
2023-01-28T05:26:31.493Z,15.00
2023-01-28T05:29:39.983Z,18.53
2023-01-28T05:32:50.126Z,20.37
2023-01-28T05:36:03.026Z,17.43
2023-01-28T05:39:11.640Z,17.03
2023-01-28T05:42:22.556Z,16.80
2023-01-28T05:45:35.706Z,21.53
2023-01-28T05:48:52.497Z,22.90
2023-01-28T05:52:33.487Z,19.40
2023-01-28T05:55:42.142Z,23.27
2023-01-28T05:58:50.517Z,21.73
2023-01-28T06:01:59.004Z,21.43
2023-01-28T06:05:10.453Z,20.07
2023-01-28T06:08:18.802Z,22.10
2023-01-28T06:11:27.506Z,20.50
2023-01-28T06:14:39.031Z,20.00
2023-01-28T06:17:59.389Z,22.43
2023-01-28T06:21:11.854Z,22.27
2023-01-28T06:24:20.754Z,23.13
2023-01-28T06:27:29.199Z,19.40
2023-01-28T06:30:37.387Z,22.23
2023-01-28T06:33:46.140Z,25.67
2023-01-28T06:36:56.445Z,19.83
2023-01-28T06:40:05.378Z,21.23
2023-01-28T06:43:13.566Z,19.50
2023-01-28T06:46:22.057Z,18.53
2023-01-28T06:49:30.209Z,25.03
2023-01-28T06:52:41.646Z,19.93
2023-01-28T06:55:50.936Z,20.30
2023-01-28T06:58:59.106Z,18.53
2023-01-28T07:02:07.988Z,21.67
2023-01-28T07:05:16.343Z,18.47
2023-01-28T07:08:26.034Z,18.73
2023-01-28T07:11:34.550Z,20.33
2023-01-28T07:14:42.762Z,20.43
2023-01-28T07:17:50.953Z,20.90
2023-01-28T07:20:59.140Z,19.57
2023-01-28T07:24:09.772Z,17.83
2023-01-28T07:27:17.979Z,20.80
2023-01-28T07:30:26.535Z,21.50
2023-01-28T07:33:34.857Z,22.80
2023-01-28T07:36:43.266Z,22.97
2023-01-28T07:39:52.828Z,17.83
2023-01-28T07:43:01.180Z,20.07
2023-01-28T07:46:17.422Z,17.17
2023-01-28T07:49:25.608Z,23.27
2023-01-28T07:52:38.817Z,24.47
2023-01-28T07:55:48.299Z,20.00
2023-01-28T07:58:56.689Z,22.30
2023-01-28T08:02:04.976Z,22.70
2023-01-28T08:05:13.277Z,20.67
2023-01-28T08:08:21.874Z,19.10
2023-01-28T08:11:31.590Z,19.07
2023-01-28T08:14:40.052Z,17.47
2023-01-28T08:17:48.496Z,17.17
2023-01-28T08:20:57.219Z,18.40
2023-01-28T08:24:06.369Z,14.60
2023-01-28T08:27:15.963Z,16.90
2023-01-28T08:30:24.445Z,18.40
2023-01-28T08:33:33.057Z,17.80
2023-01-28T08:36:41.326Z,16.37
2023-01-28T08:39:50.866Z,18.30
2023-01-28T08:43:00.944Z,20.00
2023-01-28T08:46:09.214Z,19.83
2023-01-28T08:49:17.677Z,19.30
2023-01-28T08:52:25.862Z,17.97
2023-01-28T08:55:35.597Z,17.70
2023-01-28T08:58:46.405Z,17.33
2023-01-28T09:01:56.031Z,19.83
2023-01-28T09:05:05.346Z,18.53
2023-01-28T09:08:16.123Z,18.07
2023-01-28T09:11:24.765Z,18.67
2023-01-28T09:14:34.821Z,19.10
2023-01-28T09:17:43.569Z,16.93
2023-01-28T09:20:52.116Z,17.67
2023-01-28T09:24:00.595Z,17.27
2023-01-28T09:27:09.347Z,20.87
2023-01-28T09:30:19.839Z,17.17
2023-01-28T09:33:28.216Z,17.53
2023-01-28T09:36:37.027Z,17.17
2023-01-28T09:39:45.586Z,18.43
2023-01-28T09:43:19.572Z,16.83
2023-01-28T09:46:35.272Z,15.33
2023-01-28T09:49:51.832Z,17.43
2023-01-28T09:53:07.705Z,15.63
2023-01-28T09:56:26.904Z,13.03
2023-01-28T09:59:37.690Z,15.67
2023-01-28T10:03:23.175Z,15.37
2023-01-28T10:06:49.904Z,16.10
2023-01-28T10:10:07.859Z,15.77
2023-01-28T10:13:31.679Z,18.87
2023-01-28T10:16:48.065Z,16.77
2023-01-28T10:20:04.695Z,16.07
2023-01-28T10:23:21.929Z,13.90
2023-01-28T10:26:37.294Z,15.33
2023-01-28T10:29:49.978Z,14.73
2023-01-28T10:33:05.873Z,13.10
2023-01-28T10:36:18.819Z,12.80
2023-01-28T10:39:29.975Z,14.67
2023-01-28T10:42:40.673Z,13.07
2023-01-28T10:46:00.261Z,16.40
2023-01-28T10:49:18.133Z,15.47
2023-01-28T10:52:27.990Z,14.90
2023-01-28T10:55:49.113Z,14.13
2023-01-28T10:59:02.877Z,9.57
2023-01-28T11:02:32.364Z,12.17
2023-01-28T11:06:08.341Z,12.57
2023-01-28T11:09:26.501Z,9.70
2023-01-28T11:12:34.716Z,10.23
2023-01-28T11:15:49.728Z,9.80
2023-01-28T11:19:06.309Z,13.10
2023-01-28T11:22:30.039Z,12.73
2023-01-28T11:25:39.757Z,11.77
2023-01-28T11:28:48.385Z,10.17
2023-01-28T11:31:57.462Z,8.57
2023-01-28T11:35:07.814Z,8.33
2023-01-28T11:38:23.183Z,7.37
2023-01-28T11:41:36.427Z,9.23
2023-01-28T11:44:45.378Z,9.07
2023-01-28T11:48:15.161Z,9.10
2023-01-28T11:51:47.400Z,9.27
2023-01-28T11:55:19.086Z,7.20
2023-01-28T11:58:42.429Z,8.63
2023-01-28T12:02:03.607Z,11.67
2023-01-28T12:05:41.472Z,8.93
2023-01-28T12:09:07.462Z,11.50
2023-01-28T12:12:47.751Z,12.23
2023-01-28T12:16:37.069Z,10.10
2023-01-28T12:20:09.418Z,9.73
2023-01-28T12:23:46.068Z,10.33
2023-01-28T12:27:12.626Z,10.00
2023-01-28T12:30:44.895Z,11.90
2023-01-28T12:34:24.684Z,12.37
2023-01-28T12:37:50.507Z,11.73
2023-01-28T12:41:08.748Z,10.83
2023-01-28T12:44:27.506Z,11.40
2023-01-28T12:47:40.382Z,11.07
2023-01-28T12:50:58.548Z,9.77
2023-01-28T12:54:21.240Z,12.43
2023-01-28T12:57:32.871Z,11.63
2023-01-28T13:00:51.321Z,11.40
2023-01-28T13:04:08.558Z,12.83
2023-01-28T13:07:24.457Z,11.77
2023-01-28T13:10:41.770Z,11.90
2023-01-28T13:13:50.432Z,11.27
2023-01-28T13:17:11.161Z,12.87
2023-01-28T13:20:32.251Z,13.67
2023-01-28T13:23:45.486Z,14.43
2023-01-28T13:26:56.920Z,13.33
2023-01-28T13:30:25.167Z,12.33
2023-01-28T13:33:37.005Z,11.13
2023-01-28T13:36:48.691Z,12.30
2023-01-28T13:40:09.203Z,13.63
2023-01-28T13:43:38.614Z,11.50
2023-01-28T13:46:47.555Z,9.80
2023-01-28T13:50:01.020Z,11.70
2023-01-28T13:53:36.594Z,12.13
2023-01-28T13:57:21.364Z,13.63
2023-01-28T14:00:41.661Z,10.60
2023-01-28T14:04:27.649Z,11.63
2023-01-28T14:08:10.735Z,15.20
2023-01-28T14:12:12.045Z,12.37
2023-01-28T14:15:59.666Z,13.87
2023-01-28T14:19:14.658Z,12.17
2023-01-28T14:22:23.582Z,13.50
2023-01-28T14:25:54.580Z,13.40
2023-01-28T14:29:34.265Z,13.10
2023-01-28T14:32:49.284Z,13.57
2023-01-28T14:35:58.714Z,12.07
2023-01-28T14:39:12.406Z,10.50
2023-01-28T14:42:25.742Z,11.13
2023-01-28T14:46:04.117Z,11.47
2023-01-28T14:49:33.276Z,11.30
2023-01-28T14:53:17.402Z,12.20
2023-01-28T14:56:43.252Z,21.47
2023-01-28T14:59:55.596Z,17.10
2023-01-28T15:03:27.454Z,15.03
2023-01-28T15:06:37.576Z,12.60
2023-01-28T15:09:46.310Z,13.43
2023-01-28T15:12:59.722Z,16.23
2023-01-28T15:16:09.244Z,19.17
2023-01-28T15:19:27.231Z,11.73
2023-01-28T15:22:36.151Z,13.23
2023-01-28T15:25:45.441Z,11.37
2023-01-28T15:28:56.362Z,13.70
2023-01-28T15:32:06.351Z,12.40
2023-01-28T15:35:16.018Z,10.30
2023-01-28T15:38:27.361Z,12.73
2023-01-28T15:41:42.457Z,12.63
2023-01-28T15:44:52.645Z,11.23
2023-01-28T15:48:08.914Z,13.43
2023-01-28T15:51:25.808Z,15.10
2023-01-28T15:54:39.123Z,16.40
2023-01-28T15:57:47.302Z,11.63
2023-01-28T16:01:20.359Z,11.60
2023-01-28T16:04:31.036Z,14.17
2023-01-28T16:07:47.342Z,11.87
2023-01-28T16:10:57.906Z,13.83
2023-01-28T16:14:06.356Z,13.60
2023-01-28T16:17:20.653Z,10.63
2023-01-28T16:20:31.310Z,14.03
2023-01-28T16:23:41.506Z,12.80
2023-01-28T16:26:58.916Z,13.83
2023-01-28T16:30:08.390Z,14.03
2023-01-28T16:33:21.930Z,12.87
2023-01-28T16:36:30.015Z,14.03
2023-01-28T16:39:39.492Z,14.50
2023-01-28T16:42:48.444Z,14.10
2023-01-28T16:45:56.799Z,15.30
2023-01-28T16:49:05.059Z,16.20
2023-01-28T16:52:13.652Z,14.10
2023-01-28T16:55:24.232Z,14.27
2023-01-28T16:58:32.500Z,16.53
2023-01-28T17:01:40.850Z,17.30
2023-01-28T17:04:49.123Z,15.50
2023-01-28T17:07:59.413Z,13.27
2023-01-28T17:11:08.996Z,13.83
2023-01-28T17:14:17.093Z,19.00
2023-01-28T17:17:25.429Z,16.03
2023-01-28T17:20:37.337Z,16.93
2023-01-28T17:23:45.731Z,17.63
2023-01-28T17:26:55.300Z,18.50
2023-01-28T17:30:03.533Z,15.23
2023-01-28T17:33:11.646Z,17.60
2023-01-28T17:36:19.844Z,14.63
2023-01-28T17:39:28.081Z,16.13
2023-01-28T17:42:37.534Z,14.10
2023-01-28T17:45:45.654Z,17.37
2023-01-28T17:48:54.375Z,13.40
2023-01-28T17:52:02.514Z,15.80
2023-01-28T17:55:12.012Z,16.93
2023-01-28T17:58:21.750Z,17.40
2023-01-28T18:01:30.496Z,16.27
2023-01-28T18:04:40.251Z,19.43
2023-01-28T18:07:50.240Z,16.63
2023-01-28T18:10:58.384Z,15.37
2023-01-28T18:14:07.915Z,16.53
2023-01-28T18:17:16.145Z,17.13
2023-01-28T18:20:24.831Z,15.20
2023-01-28T18:23:34.271Z,17.63
2023-01-28T18:26:42.594Z,19.30
2023-01-28T18:29:52.605Z,12.93
2023-01-28T18:33:00.694Z,16.70
2023-01-28T18:36:10.583Z,14.40
2023-01-28T18:39:20.473Z,12.50
2023-01-28T18:42:28.706Z,12.70
2023-01-28T18:45:41.633Z,13.20
2023-01-28T18:48:49.962Z,14.77
2023-01-28T18:51:59.336Z,14.47
2023-01-28T18:55:09.386Z,15.73
2023-01-28T18:58:17.867Z,14.23
2023-01-28T19:01:28.830Z,16.97
2023-01-28T19:04:37.031Z,15.70
2023-01-28T19:07:45.200Z,15.77
2023-01-28T19:10:57.158Z,14.83
2023-01-28T19:14:06.269Z,16.83
2023-01-28T19:17:16.421Z,16.43
2023-01-28T19:20:24.603Z,15.43
2023-01-28T19:23:48.871Z,13.97
2023-01-28T19:26:57.702Z,17.17
2023-01-28T19:30:08.013Z,17.93
2023-01-28T19:33:17.559Z,16.93
2023-01-28T19:36:27.270Z,17.37
2023-01-28T19:39:35.523Z,17.23
2023-01-28T19:42:43.638Z,16.23
2023-01-28T19:45:58.401Z,15.67
2023-01-28T19:49:10.412Z,18.57
2023-01-28T19:52:18.510Z,16.07
2023-01-28T19:55:26.886Z,21.40
2023-01-28T19:58:35.557Z,28.80
2023-01-28T20:01:43.776Z,20.23
2023-01-28T20:05:00.594Z,17.23
2023-01-28T20:08:09.159Z,14.80
2023-01-28T20:11:17.943Z,15.93
2023-01-28T20:14:27.926Z,13.73
2023-01-28T20:17:36.056Z,15.77
2023-01-28T20:20:53.813Z,16.00
2023-01-28T20:24:04.481Z,18.50
2023-01-28T20:27:12.661Z,17.27
2023-01-28T20:30:20.957Z,16.70
2023-01-28T20:33:29.098Z,19.27
2023-01-28T20:36:38.602Z,16.30
2023-01-28T20:39:47.072Z,19.93
2023-01-28T20:42:55.138Z,18.50
2023-01-28T20:46:05.895Z,18.03
2023-01-28T20:49:14.002Z,14.70
2023-01-28T20:52:23.433Z,14.73
2023-01-28T20:55:32.575Z,16.73
2023-01-28T20:58:41.354Z,18.77
2023-01-28T21:01:49.537Z,20.97
2023-01-28T21:04:57.679Z,23.67
2023-01-28T21:08:07.753Z,19.97
2023-01-28T21:11:15.892Z,20.60
2023-01-28T21:14:24.455Z,18.60
2023-01-28T21:17:33.199Z,18.37
2023-01-28T21:20:41.304Z,20.27
2023-01-28T21:23:51.005Z,20.73
2023-01-28T21:26:59.101Z,18.00
2023-01-28T21:30:09.249Z,14.80
2023-01-28T21:33:17.426Z,12.33
2023-01-28T21:36:27.078Z,15.57
2023-01-28T21:39:36.632Z,14.60
2023-01-28T21:42:45.023Z,16.73
2023-01-28T21:45:56.749Z,16.43
2023-01-28T21:49:06.458Z,14.37
2023-01-28T21:52:14.754Z,17.13
2023-01-28T21:55:24.460Z,14.73
2023-01-28T21:58:50.795Z,16.30
2023-01-28T22:02:01.231Z,17.87
2023-01-28T22:05:09.789Z,20.80
2023-01-28T22:08:18.051Z,15.10
2023-01-28T22:11:28.050Z,14.50
2023-01-28T22:14:37.285Z,17.20
2023-01-28T22:17:45.468Z,17.60
2023-01-28T22:21:01.740Z,14.57
2023-01-28T22:24:13.585Z,16.17
2023-01-28T22:27:23.116Z,17.10
2023-01-28T22:30:31.410Z,14.93
2023-01-28T22:33:40.515Z,16.43
2023-01-28T22:36:49.215Z,15.17
2023-01-28T22:39:57.380Z,18.03
2023-01-28T22:43:06.943Z,21.10
2023-01-28T22:46:16.218Z,17.87
2023-01-28T22:49:26.660Z,17.30
2023-01-28T22:52:34.825Z,16.83
2023-01-28T23:00:44.699Z,16.83
2023-01-28T23:07:50.479Z,17.53
2023-01-28T23:11:39.161Z,14.50
2023-01-28T23:28:33.813Z,20.80
2023-01-28T23:32:32.481Z,17.70
2023-01-28T23:36:43.539Z,23.00
2023-01-28T23:40:58.702Z,20.37
2023-01-28T23:44:44.027Z,15.37
2023-01-28T23:48:45.661Z,18.13
2023-01-28T23:52:48.600Z,19.27
2023-01-28T23:56:35.598Z,22.13
